sensor_id;sensor_type;location;lat;lon;timestamp;pressure;altitude;pressure_sealevel;temperature;humidity
29549;BME280;16487;53.094;8.800;2023-01-28T00:02:11;101759.72;;;1.75;100.00
29549;BME280;16487;53.094;8.800;2023-01-28T00:04:38;101756.97;;;1.75;100.00
29549;BME280;16487;53.094;8.800;2023-01-28T00:07:07;101773.78;;;1.73;100.00
29549;BME280;16487;53.094;8.800;2023-01-28T00:09:34;101781.88;;;1.66;100.00
29549;BME280;16487;53.094;8.800;2023-01-28T00:12:02;101792.25;;;1.73;100.00
29549;BME280;16487;53.094;8.800;2023-01-28T00:14:29;101802.53;;;1.76;100.00
29549;BME280;16487;53.094;8.800;2023-01-28T00:16:56;101815.00;;;1.73;100.00
29549;BME280;16487;53.094;8.800;2023-01-28T00:19:24;101806.78;;;1.73;100.00
29549;BME280;16487;53.094;8.800;2023-01-28T00:21:51;101808.75;;;1.73;100.00
29549;BME280;16487;53.094;8.800;2023-01-28T00:24:20;101795.63;;;1.66;100.00
29549;BME280;16487;53.094;8.800;2023-01-28T00:26:47;101793.75;;;1.70;100.00
29549;BME280;16487;53.094;8.800;2023-01-28T00:29:14;101792.44;;;1.64;100.00
29549;BME280;16487;53.094;8.800;2023-01-28T00:31:43;101792.00;;;1.62;100.00
29549;BME280;16487;53.094;8.800;2023-01-28T00:34:10;101796.78;;;1.65;100.00
29549;BME280;16487;53.094;8.800;2023-01-28T00:36:40;101801.06;;;1.63;100.00
29549;BME280;16487;53.094;8.800;2023-01-28T00:39:10;101797.50;;;1.62;100.00
29549;BME280;16487;53.094;8.800;2023-01-28T00:41:42;101784.81;;;1.58;100.00
29549;BME280;16487;53.094;8.800;2023-01-28T00:44:10;101776.94;;;1.56;100.00
29549;BME280;16487;53.094;8.800;2023-01-28T00:46:37;101781.56;;;1.52;100.00
29549;BME280;16487;53.094;8.800;2023-01-28T00:49:05;101786.63;;;1.50;100.00
29549;BME280;16487;53.094;8.800;2023-01-28T00:51:33;101766.19;;;1.67;100.00
29549;BME280;16487;53.094;8.800;2023-01-28T00:54:01;101767.47;;;1.54;100.00
29549;BME280;16487;53.094;8.800;2023-01-28T00:56:28;101766.66;;;1.53;100.00
29549;BME280;16487;53.094;8.800;2023-01-28T00:58:57;101754.09;;;1.52;100.00
29549;BME280;16487;53.094;8.800;2023-01-28T01:01:26;101763.03;;;1.49;100.00
29549;BME280;16487;53.094;8.800;2023-01-28T01:03:54;101765.88;;;1.53;100.00
29549;BME280;16487;53.094;8.800;2023-01-28T01:06:22;101777.56;;;1.50;100.00
29549;BME280;16487;53.094;8.800;2023-01-28T01:08:50;101785.19;;;1.56;100.00
29549;BME280;16487;53.094;8.800;2023-01-28T01:11:17;101778.91;;;1.56;100.00
29549;BME280;16487;53.094;8.800;2023-01-28T01:13:49;101788.19;;;1.51;100.00
29549;BME280;16487;53.094;8.800;2023-01-28T01:16:18;101788.38;;;1.58;100.00
29549;BME280;16487;53.094;8.800;2023-01-28T01:18:48;101795.81;;;1.58;100.00
29549;BME280;16487;53.094;8.800;2023-01-28T01:21:17;101806.78;;;1.58;100.00
29549;BME280;16487;53.094;8.800;2023-01-28T01:23:46;101810.72;;;1.57;100.00
29549;BME280;16487;53.094;8.800;2023-01-28T01:26:14;101806.38;;;1.56;100.00
29549;BME280;16487;53.094;8.800;2023-01-28T01:28:41;101789.38;;;1.50;100.00
29549;BME280;16487;53.094;8.800;2023-01-28T01:31:11;101786.25;;;1.52;100.00
29549;BME280;16487;53.094;8.800;2023-01-28T01:33:40;101786.34;;;1.55;100.00
29549;BME280;16487;53.094;8.800;2023-01-28T01:36:09;101790.22;;;1.54;100.00
29549;BME280;16487;53.094;8.800;2023-01-28T01:38:36;101791.66;;;1.48;100.00
29549;BME280;16487;53.094;8.800;2023-01-28T01:41:04;101799.63;;;1.53;100.00
29549;BME280;16487;53.094;8.800;2023-01-28T01:43:46;101796.00;;;1.49;100.00
29549;BME280;16487;53.094;8.800;2023-01-28T01:46:16;101798.81;;;1.53;100.00
29549;BME280;16487;53.094;8.800;2023-01-28T01:48:46;101786.19;;;1.48;100.00
29549;BME280;16487;53.094;8.800;2023-01-28T01:51:17;101774.47;;;1.51;100.00
29549;BME280;16487;53.094;8.800;2023-01-28T01:53:48;101773.41;;;1.56;100.00
29549;BME280;16487;53.094;8.800;2023-01-28T01:56:20;101779.16;;;1.51;100.00
29549;BME280;16487;53.094;8.800;2023-01-28T01:58:52;101768.13;;;1.47;100.00
29549;BME280;16487;53.094;8.800;2023-01-28T02:01:22;101766.94;;;1.48;100.00
29549;BME280;16487;53.094;8.800;2023-01-28T02:03:58;101774.81;;;1.50;100.00
29549;BME280;16487;53.094;8.800;2023-01-28T02:06:27;101773.16;;;1.45;100.00
29549;BME280;16487;53.094;8.800;2023-01-28T02:08:56;101784.16;;;1.45;100.00
29549;BME280;16487;53.094;8.800;2023-01-28T02:11:25;101792.22;;;1.38;100.00
29549;BME280;16487;53.094;8.800;2023-01-28T02:13:57;101796.38;;;1.32;100.00
29549;BME280;16487;53.094;8.800;2023-01-28T02:16:27;101788.94;;;1.33;100.00
29549;BME280;16487;53.094;8.800;2023-01-28T02:18:56;101788.03;;;1.29;100.00
29549;BME280;16487;53.094;8.800;2023-01-28T02:21:47;101795.75;;;1.23;100.00
29549;BME280;16487;53.094;8.800;2023-01-28T02:27:26;101796.91;;;1.22;100.00
29549;BME280;16487;53.094;8.800;2023-01-28T02:30:03;101795.16;;;1.30;100.00
29549;BME280;16487;53.094;8.800;2023-01-28T02:32:36;101801.94;;;1.20;100.00
29549;BME280;16487;53.094;8.800;2023-01-28T02:35:11;101801.94;;;1.20;100.00
29549;BME280;16487;53.094;8.800;2023-01-28T02:37:46;101781.91;;;1.19;100.00
29549;BME280;16487;53.094;8.800;2023-01-28T02:40:20;101778.50;;;1.23;100.00
29549;BME280;16487;53.094;8.800;2023-01-28T02:42:49;101789.38;;;1.19;100.00
29549;BME280;16487;53.094;8.800;2023-01-28T02:45:21;101790.09;;;1.16;100.00
29549;BME280;16487;53.094;8.800;2023-01-28T02:47:48;101790.09;;;1.16;100.00
29549;BME280;16487;53.094;8.800;2023-01-28T02:50:17;101794.34;;;1.13;100.00
29549;BME280;16487;53.094;8.800;2023-01-28T02:52:55;101790.09;;;1.16;100.00
29549;BME280;16487;53.094;8.800;2023-01-28T02:55:29;101801.06;;;1.16;100.00
29549;BME280;16487;53.094;8.800;2023-01-28T02:58:04;101812.06;;;1.16;100.00
29549;BME280;16487;53.094;8.800;2023-01-28T03:00:44;101808.59;;;1.19;100.00
29549;BME280;16487;53.094;8.800;2023-01-28T03:03:19;101793.63;;;1.16;100.00
29549;BME280;16487;53.094;8.800;2023-01-28T03:05:51;101791.41;;;1.22;100.00
29549;BME280;16487;53.094;8.800;2023-01-28T03:08:19;101786.19;;;1.17;100.00
29549;BME280;16487;53.094;8.800;2023-01-28T03:10:47;101790.09;;;1.16;100.00
29549;BME280;16487;53.094;8.800;2023-01-28T03:13:15;101782.72;;;1.20;100.00
29549;BME280;16487;53.094;8.800;2023-01-28T03:15:46;101785.19;;;1.25;100.00
29549;BME280;16487;53.094;8.800;2023-01-28T03:18:16;101795.75;;;1.23;100.00
29549;BME280;16487;53.094;8.800;2023-01-28T03:20:47;101790.59;;;1.22;100.00
29549;BME280;16487;53.094;8.800;2023-01-28T03:23:21;101793.78;;;1.24;100.00
29549;BME280;16487;53.094;8.800;2023-01-28T03:25:52;101806.31;;;1.21;100.00
29549;BME280;16487;53.094;8.800;2023-01-28T03:28:24;101809.72;;;1.18;100.00
29549;BME280;16487;53.094;8.800;2023-01-28T03:31:02;101814.34;;;1.14;100.00
29549;BME280;16487;53.094;8.800;2023-01-28T03:33:40;101832.31;;;1.11;100.00
29549;BME280;16487;53.094;8.800;2023-01-28T03:36:08;101831.69;;;1.18;100.00
29549;BME280;16487;53.094;8.800;2023-01-28T03:38:36;101833.13;;;1.12;100.00
29549;BME280;16487;53.094;8.800;2023-01-28T03:41:05;101839.75;;;1.11;100.00
29549;BME280;16487;53.094;8.800;2023-01-28T03:43:33;101840.09;;;1.09;100.00
29549;BME280;16487;53.094;8.800;2023-01-28T03:46:02;101847.22;;;1.10;100.00
29549;BME280;16487;53.094;8.800;2023-01-28T03:48:30;101856.66;;;1.13;100.00
29549;BME280;16487;53.094;8.800;2023-01-28T03:51:00;101857.38;;;1.10;100.00
29549;BME280;16487;53.094;8.800;2023-01-28T03:53:29;101862.06;;;1.09;100.00
29549;BME280;16487;53.094;8.800;2023-01-28T03:55:57;101855.09;;;1.12;100.00
29549;BME280;16487;53.094;8.800;2023-01-28T03:58:25;101848.88;;;1.15;100.00
29549;BME280;16487;53.094;8.800;2023-01-28T04:00:52;101851.97;;;1.13;100.00
29549;BME280;16487;53.094;8.800;2023-01-28T04:03:22;101846.88;;;1.28;100.00
29549;BME280;16487;53.094;8.800;2023-01-28T04:06:12;101834.69;;;1.13;100.00
29549;BME280;16487;53.094;8.800;2023-01-28T04:09:05;101831.50;;;1.11;100.00
29549;BME280;16487;53.094;8.800;2023-01-28T04:11:40;101826.72;;;1.08;100.00
29549;BME280;16487;53.094;8.800;2023-01-28T04:14:08;101836.31;;;1.14;100.00
29549;BME280;16487;53.094;8.800;2023-01-28T04:16:56;101839.31;;;1.09;100.00
29549;BME280;16487;53.094;8.800;2023-01-28T04:19:26;101840.66;;;1.15;100.00
29549;BME280;16487;53.094;8.800;2023-01-28T04:21:55;101838.16;;;1.10;100.00
29549;BME280;16487;53.094;8.800;2023-01-28T04:24:23;101851.88;;;1.10;100.00
29549;BME280;16487;53.094;8.800;2023-01-28T04:26:51;101847.75;;;1.16;100.00
29549;BME280;16487;53.094;8.800;2023-01-28T04:29:21;101861.28;;;1.09;100.00
29549;BME280;16487;53.094;8.800;2023-01-28T04:31:50;101866.22;;;1.03;100.00
29549;BME280;16487;53.094;8.800;2023-01-28T04:34:41;101870.88;;;0.87;100.00
29549;BME280;16487;53.094;8.800;2023-01-28T04:37:20;101886.78;;;0.82;100.00
29549;BME280;16487;53.094;8.800;2023-01-28T04:40:14;101881.09;;;0.75;100.00
29549;BME280;16487;53.094;8.800;2023-01-28T04:42:55;101889.13;;;0.68;100.00
29549;BME280;16487;53.094;8.800;2023-01-28T04:45:31;101883.88;;;0.63;100.00
29549;BME280;16487;53.094;8.800;2023-01-28T04:48:16;101895.09;;;0.58;100.00
29549;BME280;16487;53.094;8.800;2023-01-28T04:51:08;101890.78;;;0.57;100.00
29549;BME280;16487;53.094;8.800;2023-01-28T04:54:02;101878.84;;;0.65;100.00
29549;BME280;16487;53.094;8.800;2023-01-28T04:56:31;101876.09;;;0.65;100.00
29549;BME280;16487;53.094;8.800;2023-01-28T04:59:00;101870.16;;;0.63;100.00
29549;BME280;16487;53.094;8.800;2023-01-28T05:01:27;101872.91;;;0.63;100.00
29549;BME280;16487;53.094;8.800;2023-01-28T05:03:55;101881.03;;;0.59;100.00
29549;BME280;16487;53.094;8.800;2023-01-28T05:06:27;101894.06;;;0.62;100.00
29549;BME280;16487;53.094;8.800;2023-01-28T05:08:58;101899.22;;;0.64;100.00
29549;BME280;16487;53.094;8.800;2023-01-28T05:11:26;101909.84;;;0.65;100.00
29549;BME280;16487;53.094;8.800;2023-01-28T05:13:58;101912.25;;;0.55;100.00
29549;BME280;16487;53.094;8.800;2023-01-28T05:16:32;101923.56;;;0.53;100.00
29549;BME280;16487;53.094;8.800;2023-01-28T05:18:59;101933.28;;;0.51;100.00
29549;BME280;16487;53.094;8.800;2023-01-28T05:21:34;101945.66;;;0.45;100.00
29549;BME280;16487;53.094;8.800;2023-01-28T05:24:05;101955.81;;;0.44;100.00
29549;BME280;16487;53.094;8.800;2023-01-28T05:26:33;101962.56;;;0.47;100.00
29549;BME280;16487;53.094;8.800;2023-01-28T05:29:00;101964.38;;;0.43;100.00
29549;BME280;16487;53.094;8.800;2023-01-28T05:31:28;101974.88;;;0.53;100.00
29549;BME280;16487;53.094;8.800;2023-01-28T05:33:56;101981.66;;;0.43;100.00
29549;BME280;16487;53.094;8.800;2023-01-28T05:36:23;101988.13;;;0.51;100.00
29549;BME280;16487;53.094;8.800;2023-01-28T05:38:52;101979.91;;;0.51;100.00
29549;BME280;16487;53.094;8.800;2023-01-28T05:41:19;101982.75;;;0.54;100.00
29549;BME280;16487;53.094;8.800;2023-01-28T05:43:53;101993.03;;;0.57;100.00
29549;BME280;16487;53.094;8.800;2023-01-28T05:46:47;101988.81;;;0.60;100.00
29549;BME280;16487;53.094;8.800;2023-01-28T05:49:32;101994.06;;;0.65;100.00
29549;BME280;16487;53.094;8.800;2023-01-28T05:52:18;101993.13;;;0.61;100.00
29549;BME280;16487;53.094;8.800;2023-01-28T05:54:47;101991.44;;;0.56;100.00
29549;BME280;16487;53.094;8.800;2023-01-28T05:57:14;101982.19;;;0.49;100.00
29549;BME280;16487;53.094;8.800;2023-01-28T05:59:41;101989.16;;;0.58;100.00
29549;BME280;16487;53.094;8.800;2023-01-28T06:02:09;101975.91;;;0.48;100.00
29549;BME280;16487;53.094;8.800;2023-01-28T06:04:36;101969.03;;;0.54;100.00
29549;BME280;16487;53.094;8.800;2023-01-28T06:07:03;101966.19;;;0.51;100.00
29549;BME280;16487;53.094;8.800;2023-01-28T06:09:31;101965.09;;;0.40;100.00
29549;BME280;16487;53.094;8.800;2023-01-28T06:12:00;101965.75;;;0.25;100.00
29549;BME280;16487;53.094;8.800;2023-01-28T06:14:30;101963.94;;;0.29;100.00
29549;BME280;16487;53.094;8.800;2023-01-28T06:17:24;101961.44;;;0.24;100.00
29549;BME280;16487;53.094;8.800;2023-01-28T06:20:06;101969.09;;;0.06;100.00
29549;BME280;16487;53.094;8.800;2023-01-28T06:22:36;101972.41;;;-0.01;100.00
29549;BME280;16487;53.094;8.800;2023-01-28T06:25:04;101953.44;;;-0.06;100.00
29549;BME280;16487;53.094;8.800;2023-01-28T06:27:33;101959.34;;;-0.16;100.00
29549;BME280;16487;53.094;8.800;2023-01-28T06:30:01;101986.75;;;-0.16;100.00
29549;BME280;16487;53.094;8.800;2023-01-28T06:32:29;102006.00;;;-0.36;100.00
29549;BME280;16487;53.094;8.800;2023-01-28T06:34:56;102013.31;;;-0.40;100.00
29549;BME280;16487;53.094;8.800;2023-01-28T06:37:23;102013.75;;;-0.50;100.00
29549;BME280;16487;53.094;8.800;2023-01-28T06:39:52;102037.59;;;-0.39;100.00
29549;BME280;16487;53.094;8.800;2023-01-28T06:42:19;102048.31;;;-0.46;100.00
29549;BME280;16487;53.094;8.800;2023-01-28T06:44:48;102055.78;;;-0.55;100.00
29549;BME280;16487;53.094;8.800;2023-01-28T06:47:15;102052.84;;;-0.50;100.00
29549;BME280;16487;53.094;8.800;2023-01-28T06:49:42;102048.72;;;-0.56;100.00
29549;BME280;16487;53.094;8.800;2023-01-28T06:52:10;102051.13;;;-0.54;100.00
29549;BME280;16487;53.094;8.800;2023-01-28T06:54:37;102052.59;;;-0.57;100.00
29549;BME280;16487;53.094;8.800;2023-01-28T06:57:04;102060.59;;;-0.52;100.00
29549;BME280;16487;53.094;8.800;2023-01-28T06:59:32;102058.41;;;-0.58;100.00
29549;BME280;16487;53.094;8.800;2023-01-28T07:02:00;102083.84;;;-0.58;100.00
29549;BME280;16487;53.094;8.800;2023-01-28T07:04:28;102085.59;;;-0.74;100.00
29549;BME280;16487;53.094;8.800;2023-01-28T07:06:55;102097.28;;;-0.65;100.00
29549;BME280;16487;53.094;8.800;2023-01-28T07:09:22;102095.41;;;-0.73;100.00
29549;BME280;16487;53.094;8.800;2023-01-28T07:11:50;102102.00;;;-0.74;100.00
29549;BME280;16487;53.094;8.800;2023-01-28T07:14:17;102111.63;;;-0.68;100.00
29549;BME280;16487;53.094;8.800;2023-01-28T07:16:44;102120.97;;;-0.69;100.00
29549;BME280;16487;53.094;8.800;2023-01-28T07:19:13;102129.38;;;-0.74;100.00
29549;BME280;16487;53.094;8.800;2023-01-28T07:21:40;102133.25;;;-0.75;100.00
29549;BME280;16487;53.094;8.800;2023-01-28T07:24:08;102144.69;;;-0.73;100.00
29549;BME280;16487;53.094;8.800;2023-01-28T07:26:35;102149.69;;;-0.75;100.00
29549;BME280;16487;53.094;8.800;2023-01-28T07:29:02;102157.63;;;-0.82;100.00
29549;BME280;16487;53.094;8.800;2023-01-28T07:31:30;102177.25;;;-0.80;100.00
29549;BME280;16487;53.094;8.800;2023-01-28T07:33:57;102197.00;;;-0.74;100.00
29549;BME280;16487;53.094;8.800;2023-01-28T07:36:26;102197.47;;;-0.72;100.00
29549;BME280;16487;53.094;8.800;2023-01-28T07:38:53;102196.22;;;-0.75;100.00
29549;BME280;16487;53.094;8.800;2023-01-28T07:41:20;102201.97;;;-0.68;100.00
29549;BME280;16487;53.094;8.800;2023-01-28T07:43:47;102208.84;;;-0.62;100.00
29549;BME280;16487;53.094;8.800;2023-01-28T07:46:16;102206.09;;;-0.62;100.00
29549;BME280;16487;53.094;8.800;2023-01-28T07:48:43;102202.19;;;-0.52;100.00
29549;BME280;16487;53.094;8.800;2023-01-28T07:51:11;102190.41;;;-0.53;100.00
29549;BME280;16487;53.094;8.800;2023-01-28T07:53:39;102189.06;;;-0.47;100.00
29549;BME280;16487;53.094;8.800;2023-01-28T07:56:10;102180.28;;;-0.52;100.00
29549;BME280;16487;53.094;8.800;2023-01-28T07:58:37;102196.16;;;-0.46;100.00
29549;BME280;16487;53.094;8.800;2023-01-28T08:01:05;102195.22;;;-0.50;100.00
29549;BME280;16487;53.094;8.800;2023-01-28T08:03:32;102198.16;;;-0.34;100.00
29549;BME280;16487;53.094;8.800;2023-01-28T08:05:59;102195.50;;;-0.22;100.00
29549;BME280;16487;53.094;8.800;2023-01-28T08:08:27;102190.81;;;-0.01;100.00
29549;BME280;16487;53.094;8.800;2023-01-28T08:10:56;102186.19;;;0.12;100.00
29549;BME280;16487;53.094;8.800;2023-01-28T08:13:23;102177.78;;;0.29;100.00
29549;BME280;16487;53.094;8.800;2023-01-28T08:15:54;102165.91;;;0.37;100.00
29549;BME280;16487;53.094;8.800;2023-01-28T08:18:22;102152.44;;;0.44;100.00
29549;BME280;16487;53.094;8.800;2023-01-28T08:20:54;102128.34;;;0.49;100.00
29549;BME280;16487;53.094;8.800;2023-01-28T08:23:21;102126.63;;;0.45;100.00
29549;BME280;16487;53.094;8.800;2023-01-28T08:25:50;102117.03;;;0.51;100.00
29549;BME280;16487;53.094;8.800;2023-01-28T08:28:19;102099.31;;;0.36;100.00
29549;BME280;16487;53.094;8.800;2023-01-28T08:30:47;102092.66;;;0.25;100.00
29549;BME280;16487;53.094;8.800;2023-01-28T08:33:15;102105.81;;;0.32;100.00
29549;BME280;16487;53.094;8.800;2023-01-28T08:35:44;102107.19;;;0.26;100.00
29549;BME280;16487;53.094;8.800;2023-01-28T08:38:13;102098.84;;;0.34;100.00
29549;BME280;16487;53.094;8.800;2023-01-28T08:40:43;102089.81;;;0.22;100.00
29549;BME280;16487;53.094;8.800;2023-01-28T08:43:11;102083.50;;;0.21;100.00
29549;BME280;16487;53.094;8.800;2023-01-28T08:45:40;102087.78;;;0.31;100.00
29549;BME280;16487;53.094;8.800;2023-01-28T08:48:11;102083.63;;;0.25;100.00
29549;BME280;16487;53.094;8.800;2023-01-28T08:50:41;102078.38;;;0.32;100.00
29549;BME280;16487;53.094;8.800;2023-01-28T08:53:11;102067.31;;;0.28;100.00
29549;BME280;16487;53.094;8.800;2023-01-28T08:55:39;102072.44;;;0.30;100.00
29549;BME280;16487;53.094;8.800;2023-01-28T08:58:10;102069.03;;;0.33;100.00
29549;BME280;16487;53.094;8.800;2023-01-28T09:00:39;102062.63;;;0.41;100.00
29549;BME280;16487;53.094;8.800;2023-01-28T09:03:07;102057.03;;;0.37;100.00
29549;BME280;16487;53.094;8.800;2023-01-28T09:05:35;102062.19;;;0.51;100.00
29549;BME280;16487;53.094;8.800;2023-01-28T09:08:05;102060.25;;;0.51;100.00
29549;BME280;16487;53.094;8.800;2023-01-28T09:10:33;102061.41;;;0.62;100.00
29549;BME280;16487;53.094;8.800;2023-01-28T09:13:03;102054.41;;;0.65;100.00
29549;BME280;16487;53.094;8.800;2023-01-28T09:15:31;102057.38;;;0.60;100.00
29549;BME280;16487;53.094;8.800;2023-01-28T09:18:00;102061.41;;;0.62;100.00
29549;BME280;16487;53.094;8.800;2023-01-28T09:20:27;102061.38;;;0.74;100.00
29549;BME280;16487;53.094;8.800;2023-01-28T09:22:54;102053.44;;;0.85;100.00
29549;BME280;16487;53.094;8.800;2023-01-28T09:25:22;102049.81;;;0.93;100.00
29549;BME280;16487;53.094;8.800;2023-01-28T09:27:49;102056.63;;;0.99;100.00
29549;BME280;16487;53.094;8.800;2023-01-28T09:30:17;102047.03;;;1.05;100.00
29549;BME280;16487;53.094;8.800;2023-01-28T09:32:49;102042.84;;;1.23;100.00
29549;BME280;16487;53.094;8.800;2023-01-28T09:35:18;102028.78;;;1.52;100.00
29549;BME280;16487;53.094;8.800;2023-01-28T09:37:46;102011.19;;;1.69;100.00
29549;BME280;16487;53.094;8.800;2023-01-28T09:40:16;101993.81;;;1.80;100.00
29549;BME280;16487;53.094;8.800;2023-01-28T09:43:01;101988.50;;;2.03;100.00
29549;BME280;16487;53.094;8.800;2023-01-28T09:45:34;101964.75;;;1.79;100.00
29549;BME280;16487;53.094;8.800;2023-01-28T09:48:04;101948.06;;;1.88;100.00
29549;BME280;16487;53.094;8.800;2023-01-28T09:50:36;101939.66;;;1.96;100.00
29549;BME280;16487;53.094;8.800;2023-01-28T09:53:06;101930.31;;;2.01;100.00
29549;BME280;16487;53.094;8.800;2023-01-28T09:55:38;101934.09;;;2.27;100.00
29549;BME280;16487;53.094;8.800;2023-01-28T09:58:09;101922.31;;;2.27;100.00
29549;BME280;16487;53.094;8.800;2023-01-28T10:00:43;101912.22;;;2.15;100.00
29549;BME280;16487;53.094;8.800;2023-01-28T10:03:32;101910.28;;;2.16;100.00
29549;BME280;16487;53.094;8.800;2023-01-28T10:06:13;101903.78;;;2.24;100.00
29549;BME280;16487;53.094;8.800;2023-01-28T10:09:01;101884.56;;;2.08;100.00
29549;BME280;16487;53.094;8.800;2023-01-28T10:11:45;101889.47;;;2.34;100.00
29549;BME280;16487;53.094;8.800;2023-01-28T10:14:24;101892.38;;;2.60;100.00
29549;BME280;16487;53.094;8.800;2023-01-28T10:17:02;101869.03;;;2.70;100.00
29549;BME280;16487;53.094;8.800;2023-01-28T10:19:34;101850.69;;;2.58;100.00
29549;BME280;16487;53.094;8.800;2023-01-28T10:22:12;101846.03;;;2.62;100.00
29549;BME280;16487;53.094;8.800;2023-01-28T10:24:42;101841.56;;;2.54;100.00
29549;BME280;16487;53.094;8.800;2023-01-28T10:27:14;101839.59;;;2.55;100.00
29549;BME280;16487;53.094;8.800;2023-01-28T10:29:42;101836.50;;;2.75;100.00
29549;BME280;16487;53.094;8.800;2023-01-28T10:32:22;101834.16;;;2.39;100.00
29549;BME280;16487;53.094;8.800;2023-01-28T10:34:54;101826.72;;;2.40;100.00
29549;BME280;16487;53.094;8.800;2023-01-28T10:37:23;101823.94;;;2.20;100.00
29549;BME280;16487;53.094;8.800;2023-01-28T10:39:52;101825.59;;;2.06;100.00
29549;BME280;16487;53.094;8.800;2023-01-28T10:42:26;101839.53;;;2.51;100.00
29549;BME280;16487;53.094;8.800;2023-01-28T10:44:56;101841.78;;;2.84;100.00
29549;BME280;16487;53.094;8.800;2023-01-28T10:47:29;101808.88;;;3.36;100.00
29549;BME280;16487;53.094;8.800;2023-01-28T10:50:00;101775.94;;;3.95;100.00
29549;BME280;16487;53.094;8.800;2023-01-28T10:52:30;101743.22;;;4.97;100.00
29549;BME280;16487;53.094;8.800;2023-01-28T10:55:02;101718.38;;;4.23;100.00
29549;BME280;16487;53.094;8.800;2023-01-28T10:57:32;101723.13;;;3.37;100.00
29549;BME280;16487;53.094;8.800;2023-01-28T11:00:12;101724.75;;;2.93;100.00
29549;BME280;16487;53.094;8.800;2023-01-28T11:02:48;101723.94;;;2.93;100.00
29549;BME280;16487;53.094;8.800;2023-01-28T11:05:18;101726.34;;;2.72;100.00
29549;BME280;16487;53.094;8.800;2023-01-28T11:07:47;101756.63;;;2.94;100.00
29549;BME280;16487;53.094;8.800;2023-01-28T11:10:24;101750.81;;;2.77;100.00
29549;BME280;16487;53.094;8.800;2023-01-28T11:12:56;101739.38;;;2.75;100.00
29549;BME280;16487;53.094;8.800;2023-01-28T11:15:24;101752.81;;;2.80;100.00
29549;BME280;16487;53.094;8.800;2023-01-28T11:17:55;101742.75;;;2.87;100.00
29549;BME280;16487;53.094;8.800;2023-01-28T11:20:25;101748.06;;;2.77;100.00
29549;BME280;16487;53.094;8.800;2023-01-28T11:22:55;101741.31;;;2.74;100.00
29549;BME280;16487;53.094;8.800;2023-01-28T11:25:28;101735.19;;;2.62;100.00
29549;BME280;16487;53.094;8.800;2023-01-28T11:27:58;101741.75;;;2.99;100.00
29549;BME280;16487;53.094;8.800;2023-01-28T11:30:28;101725.06;;;2.88;100.00
29549;BME280;16487;53.094;8.800;2023-01-28T11:32:57;101704.03;;;2.77;100.00
29549;BME280;16487;53.094;8.800;2023-01-28T11:35:26;101712.53;;;2.91;100.00
29549;BME280;16487;53.094;8.800;2023-01-28T11:37:56;101711.41;;;2.95;100.00
29549;BME280;16487;53.094;8.800;2023-01-28T11:40:23;101704.66;;;2.93;100.00
29549;BME280;16487;53.094;8.800;2023-01-28T11:42:53;101693.22;;;4.68;100.00
29549;BME280;16487;53.094;8.800;2023-01-28T11:45:27;101657.88;;;6.14;100.00
29549;BME280;16487;53.094;8.800;2023-01-28T11:48:06;101614.50;;;4.89;100.00
29549;BME280;16487;53.094;8.800;2023-01-28T11:50:42;101621.28;;;5.70;100.00
29549;BME280;16487;53.094;8.800;2023-01-28T11:53:35;101606.94;;;6.71;100.00
29549;BME280;16487;53.094;8.800;2023-01-28T11:56:16;101613.63;;;7.09;100.00
29549;BME280;16487;53.094;8.800;2023-01-28T11:58:54;101645.75;;;5.64;100.00
29549;BME280;16487;53.094;8.800;2023-01-28T12:01:33;101652.50;;;5.06;100.00
29549;BME280;16487;53.094;8.800;2023-01-28T12:04:17;101636.63;;;4.92;100.00
29549;BME280;16487;53.094;8.800;2023-01-28T12:07:05;101632.78;;;5.04;100.00
29549;BME280;16487;53.094;8.800;2023-01-28T12:09:42;101634.22;;;4.87;100.00
29549;BME280;16487;53.094;8.800;2023-01-28T12:12:27;101642.03;;;4.34;100.00
29549;BME280;16487;53.094;8.800;2023-01-28T12:18:19;101660.63;;;4.04;100.00
29549;BME280;16487;53.094;8.800;2023-01-28T12:20:58;101651.13;;;4.38;100.00
29549;BME280;16487;53.094;8.800;2023-01-28T12:23:39;101648.34;;;4.02;100.00
29549;BME280;16487;53.094;8.800;2023-01-28T12:26:15;101647.19;;;4.03;100.00
29549;BME280;16487;53.094;8.800;2023-01-28T12:28:59;101654.16;;;4.26;100.00
29549;BME280;16487;53.094;8.800;2023-01-28T12:31:46;101655.00;;;4.71;100.00
29549;BME280;16487;53.094;8.800;2023-01-28T12:37:34;101644.09;;;3.75;100.00
29549;BME280;16487;53.094;8.800;2023-01-28T12:40:27;101654.00;;;3.49;100.00
29549;BME280;16487;53.094;8.800;2023-01-28T12:43:02;101674.28;;;3.64;100.00
29549;BME280;16487;53.094;8.800;2023-01-28T12:45:37;101689.69;;;3.39;100.00
29549;BME280;16487;53.094;8.800;2023-01-28T12:48:08;101681.66;;;4.96;100.00
29549;BME280;16487;53.094;8.800;2023-01-28T12:50:41;101632.47;;;5.84;100.00
29549;BME280;16487;53.094;8.800;2023-01-28T12:53:21;101574.84;;;7.06;100.00
29549;BME280;16487;53.094;8.800;2023-01-28T12:55:54;101526.84;;;7.30;100.00
29549;BME280;16487;53.094;8.800;2023-01-28T12:58:35;101532.72;;;7.53;100.00
29549;BME280;16487;53.094;8.800;2023-01-28T13:01:07;101535.44;;;7.60;100.00
29549;BME280;16487;53.094;8.800;2023-01-28T13:03:39;101541.56;;;7.06;100.00
29549;BME280;16487;53.094;8.800;2023-01-28T13:06:12;101549.53;;;6.75;100.00
29549;BME280;16487;53.094;8.800;2023-01-28T13:08:41;101546.38;;;6.07;100.00
29549;BME280;16487;53.094;8.800;2023-01-28T13:11:13;101537.53;;;5.62;100.00
29549;BME280;16487;53.094;8.800;2023-01-28T13:13:44;101530.59;;;6.39;100.00
29549;BME280;16487;53.094;8.800;2023-01-28T13:16:12;101520.09;;;7.34;100.00
29549;BME280;16487;53.094;8.800;2023-01-28T13:18:44;101528.75;;;7.47;100.00
29549;BME280;16487;53.094;8.800;2023-01-28T13:21:27;101522.34;;;8.73;100.00